Time;durP1;ratioP1;P1;durP2;ratioP2;P2;SDS_P1;SDS_P2;PMS_P1;PMS_P2;Temp;Humidity;BMP_temperature;BMP_pressure;BME280_temperature;BME280_humidity;BME280_pressure;Samples;Min_cycle;Max_cycle;Signal;HPM_P1;HPM_P2
2022/03/31 00:00:28;;;;;;;;;;;9.60;91.00;;;;;;6122540;23;19921;-78
2022/03/31 00:02:56;;;;;;;;;;;9.40;91.30;;;;;;6126975;23;19917;-78
2022/03/31 00:05:23;;;;;;;;;;;9.40;91.40;;;;;;6122960;23;19917;-80
2022/03/31 00:07:54;;;;;;;;;;;9.40;91.20;;;;;;6123224;23;19916;-79
2022/03/31 00:10:26;;;;;;;;;;;9.30;91.30;;;;;;6127345;23;19921;-81
2022/03/31 00:12:54;;;;;;;;;;;9.30;91.50;;;;;;6129115;23;20290;-80
2022/03/31 00:15:22;;;;;;;;;;;9.30;91.50;;;;;;6127873;23;20333;-79
2022/03/31 00:17:48;;;;;;;;;;;9.30;91.20;;;;;;6129446;23;19925;-79
2022/03/31 00:20:15;;;;;;;;;;;9.30;90.90;;;;;;6122599;23;19975;-81
2022/03/31 00:22:42;;;;;;;;;;;9.30;90.70;;;;;;6134359;23;20334;-79
2022/03/31 00:25:11;;;;;;;;;;;9.30;90.70;;;;;;6136888;23;19945;-79
2022/03/31 00:27:38;;;;;;;;;;;9.30;90.70;;;;;;6137607;23;19927;-81
2022/03/31 00:30:05;;;;;;;;;;;9.30;91.00;;;;;;6125662;23;19924;-80
2022/03/31 00:32:33;;;;;;;;;;;9.20;91.00;;;;;;6127943;23;19921;-80
2022/03/31 00:34:59;;;;;;;;;;;9.10;91.20;;;;;;6132769;23;19921;-80
2022/03/31 00:37:27;;;;;;;;;;;9.10;91.40;;;;;;6121787;23;19920;-80
2022/03/31 00:39:55;;;;;;;;;;;9.10;91.10;;;;;;6128444;23;19917;-81
2022/03/31 00:42:22;;;;;;;;;;;9.10;90.80;;;;;;6130892;23;19917;-78
2022/03/31 00:44:49;;;;;;;;;;;9.10;90.80;;;;;;6128608;23;19972;-81
2022/03/31 00:47:17;;;;;;;;;;;9.10;91.10;;;;;;6130575;23;19925;-78
2022/03/31 00:49:44;;;;;;;;;;;9.10;90.80;;;;;;6128757;23;19977;-79
2022/03/31 00:52:12;;;;;;;;;;;9.10;90.70;;;;;;6127703;23;20326;-81
2022/03/31 00:54:42;;;;;;;;;;;9.20;90.80;;;;;;6127367;23;19924;-79
2022/03/31 00:57:10;;;;;;;;;;;9.10;90.60;;;;;;6128344;23;19968;-79
2022/03/31 00:59:37;;;;;;;;;;;9.20;90.70;;;;;;6126925;23;19917;-79
2022/03/31 01:02:04;;;;;;;;;;;9.10;90.90;;;;;;6128695;23;19921;-79
2022/03/31 01:04:31;;;;;;;;;;;9.20;90.70;;;;;;6125435;23;20397;-81
2022/03/31 01:06:58;;;;;;;;;;;9.20;90.60;;;;;;6124049;23;19924;-78
2022/03/31 01:09:25;;;;;;;;;;;9.10;90.70;;;;;;6137585;23;19916;-79
2022/03/31 01:11:52;;;;;;;;;;;9.20;90.80;;;;;;6132204;23;20289;-79
2022/03/31 01:14:20;;;;;;;;;;;9.20;90.60;;;;;;6124886;23;19920;-80
2022/03/31 01:16:47;;;;;;;;;;;9.20;91.20;;;;;;6131636;23;19923;-78
2022/03/31 01:19:14;;;;;;;;;;;9.20;91.00;;;;;;6124020;23;19917;-81
2022/03/31 01:21:46;;;;;;;;;;;9.20;90.80;;;;;;6124025;23;19979;-78
2022/03/31 01:24:17;;;;;;;;;;;9.20;90.80;;;;;;6124869;23;19916;-80
2022/03/31 01:26:44;;;;;;;;;;;9.20;90.80;;;;;;6124577;23;19946;-78
2022/03/31 01:29:11;;;;;;;;;;;9.20;91.20;;;;;;6125106;23;19920;-79
2022/03/31 01:31:38;;;;;;;;;;;9.20;91.10;;;;;;6123984;23;19972;-78
2022/03/31 01:34:07;;;;;;;;;;;9.20;90.80;;;;;;6124639;23;20330;-81
2022/03/31 01:36:36;;;;;;;;;;;9.10;90.70;;;;;;6129516;23;19987;-78
2022/03/31 01:39:04;;;;;;;;;;;9.10;90.70;;;;;;6126253;23;19923;-78
2022/03/31 01:41:31;;;;;;;;;;;9.10;90.70;;;;;;6122882;23;20337;-80
2022/03/31 01:43:58;;;;;;;;;;;9.10;90.90;;;;;;6133462;23;19945;-80
2022/03/31 01:46:24;;;;;;;;;;;9.10;91.80;;;;;;6137399;23;20334;-79
2022/03/31 01:48:52;;;;;;;;;;;9.10;91.40;;;;;;6131653;23;19917;-78
2022/03/31 01:51:19;;;;;;;;;;;9.10;90.90;;;;;;6131199;23;20294;-78
2022/03/31 01:53:47;;;;;;;;;;;9.10;90.90;;;;;;6134939;23;19921;-78
2022/03/31 01:56:14;;;;;;;;;;;9.10;90.70;;;;;;6138278;23;19901;-78
2022/03/31 01:58:40;;;;;;;;;;;9.10;91.00;;;;;;6122712;23;19917;-79
2022/03/31 02:01:07;;;;;;;;;;;9.10;90.90;;;;;;6129568;23;19921;-79
2022/03/31 02:03:34;;;;;;;;;;;9.00;90.90;;;;;;6133122;23;19925;-78
2022/03/31 02:06:01;;;;;;;;;;;9.10;90.80;;;;;;6139298;23;19917;-79
2022/03/31 02:08:29;;;;;;;;;;;9.10;91.10;;;;;;6127598;23;19972;-79
2022/03/31 02:10:55;;;;;;;;;;;9.10;91.30;;;;;;6137020;23;19901;-79
2022/03/31 02:13:23;;;;;;;;;;;9.10;91.40;;;;;;6123849;23;19968;-79
2022/03/31 02:15:51;;;;;;;;;;;9.00;91.60;;;;;;6129027;23;19920;-78
2022/03/31 02:18:17;;;;;;;;;;;9.00;91.40;;;;;;6124013;23;20003;-78
2022/03/31 02:20:44;;;;;;;;;;;9.00;91.50;;;;;;6128212;23;20313;-78
2022/03/31 02:23:11;;;;;;;;;;;9.00;91.70;;;;;;6134535;23;19900;-79
2022/03/31 02:25:38;;;;;;;;;;;9.00;91.30;;;;;;6137429;23;19917;-79
2022/03/31 02:28:05;;;;;;;;;;;9.00;91.30;;;;;;6127071;23;19924;-78
2022/03/31 02:30:32;;;;;;;;;;;9.10;91.40;;;;;;6124156;23;19916;-78
2022/03/31 02:32:59;;;;;;;;;;;9.10;91.70;;;;;;6125863;23;19924;-78
2022/03/31 02:35:26;;;;;;;;;;;9.00;91.90;;;;;;6128579;23;19917;-78
2022/03/31 02:37:53;;;;;;;;;;;9.00;92.10;;;;;;6123087;23;19917;-78
2022/03/31 02:40:20;;;;;;;;;;;9.00;92.40;;;;;;6136145;23;20250;-81
2022/03/31 02:42:47;;;;;;;;;;;9.00;92.60;;;;;;6122900;23;19916;-79
2022/03/31 02:45:14;;;;;;;;;;;9.00;92.50;;;;;;6132258;23;19917;-80
2022/03/31 02:47:44;;;;;;;;;;;9.00;92.30;;;;;;6128254;23;20297;-78
2022/03/31 02:50:12;;;;;;;;;;;9.00;92.20;;;;;;6128817;23;19917;-77
2022/03/31 02:55:25;;;;;;;;;;;9.00;92.50;;;;;;6132459;23;19921;-78
2022/03/31 02:57:52;;;;;;;;;;;9.00;92.30;;;;;;6123229;23;19968;-78
2022/03/31 03:00:20;;;;;;;;;;;9.10;92.00;;;;;;6128976;23;19921;-78
2022/03/31 03:02:47;;;;;;;;;;;9.10;92.00;;;;;;6128261;23;19984;-77
2022/03/31 03:05:14;;;;;;;;;;;9.10;91.90;;;;;;6139070;23;19959;-78
2022/03/31 03:07:47;;;;;;;;;;;9.10;91.80;;;;;;6128488;23;20241;-77
2022/03/31 03:10:13;;;;;;;;;;;9.10;91.90;;;;;;6134144;23;19923;-80
2022/03/31 03:12:41;;;;;;;;;;;9.10;92.00;;;;;;6133759;23;19901;-78
2022/03/31 03:15:09;;;;;;;;;;;9.10;92.00;;;;;;6125362;23;19967;-78
2022/03/31 03:17:39;;;;;;;;;;;9.10;91.80;;;;;;6138274;23;19901;-79
2022/03/31 03:20:06;;;;;;;;;;;9.10;91.80;;;;;;6129574;23;19972;-78
2022/03/31 03:22:33;;;;;;;;;;;9.10;91.90;;;;;;6124309;23;19917;-76
2022/03/31 03:25:00;;;;;;;;;;;9.10;91.60;;;;;;6132027;23;19940;-79
2022/03/31 03:27:27;;;;;;;;;;;9.20;91.50;;;;;;6127986;23;20356;-79
2022/03/31 03:29:53;;;;;;;;;;;9.20;91.30;;;;;;6128633;23;19921;-77
2022/03/31 03:32:22;;;;;;;;;;;9.20;91.30;;;;;;6128185;23;19968;-77
2022/03/31 03:34:49;;;;;;;;;;;9.20;91.20;;;;;;6122565;23;19921;-78
2022/03/31 03:37:15;;;;;;;;;;;9.20;91.20;;;;;;6130046;23;19917;-78
2022/03/31 03:39:44;;;;;;;;;;;9.20;91.40;;;;;;6123452;23;20342;-78
2022/03/31 03:42:11;;;;;;;;;;;9.20;91.40;;;;;;6134506;23;19908;-78
2022/03/31 03:44:38;;;;;;;;;;;9.20;91.20;;;;;;6121893;23;19976;-78
2022/03/31 03:47:05;;;;;;;;;;;9.20;91.10;;;;;;6127650;23;19972;-78
2022/03/31 03:49:33;;;;;;;;;;;9.20;91.10;;;;;;6137006;23;19923;-79
2022/03/31 03:51:59;;;;;;;;;;;9.20;91.00;;;;;;6133144;23;19976;-79
2022/03/31 03:54:27;;;;;;;;;;;9.20;90.90;;;;;;6149259;23;19905;-80
2022/03/31 03:56:54;;;;;;;;;;;9.20;91.00;;;;;;6127220;23;19972;-78
2022/03/31 03:59:20;;;;;;;;;;;9.20;91.00;;;;;;6131771;23;19917;-79
2022/03/31 04:01:47;;;;;;;;;;;9.20;91.10;;;;;;6123293;23;19945;-81
2022/03/31 04:04:14;;;;;;;;;;;9.20;91.40;;;;;;6127366;23;19917;-78
2022/03/31 04:06:41;;;;;;;;;;;9.20;91.60;;;;;;6125371;23;19917;-79
2022/03/31 04:09:07;;;;;;;;;;;9.10;91.30;;;;;;6124034;23;19917;-78
2022/03/31 04:11:34;;;;;;;;;;;9.10;91.30;;;;;;6127249;23;20346;-82
2022/03/31 04:14:01;;;;;;;;;;;9.10;91.20;;;;;;6130189;23;19924;-78
2022/03/31 04:16:28;;;;;;;;;;;9.10;91.20;;;;;;6130312;23;19923;-78
2022/03/31 04:18:55;;;;;;;;;;;9.10;91.20;;;;;;6126429;23;19921;-78
2022/03/31 04:21:22;;;;;;;;;;;9.10;91.10;;;;;;6124777;23;19917;-78
2022/03/31 04:23:48;;;;;;;;;;;9.10;91.20;;;;;;6121806;23;20400;-78
2022/03/31 04:26:15;;;;;;;;;;;9.10;91.20;;;;;;6123065;23;19992;-81
2022/03/31 04:28:42;;;;;;;;;;;9.10;91.10;;;;;;6122416;23;19917;-79
2022/03/31 04:31:09;;;;;;;;;;;9.10;91.20;;;;;;6132458;23;20250;-78
2022/03/31 04:33:36;;;;;;;;;;;9.00;91.20;;;;;;6129337;23;19917;-78
2022/03/31 04:36:02;;;;;;;;;;;9.00;91.30;;;;;;6122570;23;19917;-78
2022/03/31 04:38:29;;;;;;;;;;;8.90;91.40;;;;;;6125103;23;19924;-81
2022/03/31 04:40:56;;;;;;;;;;;8.90;91.40;;;;;;6121945;23;19925;-77
2022/03/31 04:43:23;;;;;;;;;;;8.90;91.30;;;;;;6126738;23;20245;-81
2022/03/31 04:45:49;;;;;;;;;;;8.90;91.40;;;;;;6124966;23;20306;-78
2022/03/31 04:48:16;;;;;;;;;;;8.90;91.30;;;;;;6133090;23;19944;-78
2022/03/31 04:50:43;;;;;;;;;;;8.80;91.20;;;;;;6124282;23;19984;-77
2022/03/31 04:53:11;;;;;;;;;;;8.80;91.10;;;;;;6123946;23;19921;-80
2022/03/31 04:55:38;;;;;;;;;;;8.80;91.30;;;;;;6127408;23;19983;-78
2022/03/31 04:58:05;;;;;;;;;;;8.80;91.40;;;;;;6129435;23;19928;-77
2022/03/31 05:00:33;;;;;;;;;;;8.80;91.20;;;;;;6127163;23;20253;-78
2022/03/31 05:03:00;;;;;;;;;;;8.70;91.40;;;;;;6126162;23;19917;-77
2022/03/31 05:05:27;;;;;;;;;;;8.60;91.60;;;;;;6133477;23;20250;-78
2022/03/31 05:07:54;;;;;;;;;;;8.60;91.80;;;;;;6124903;23;19916;-78
2022/03/31 05:10:21;;;;;;;;;;;8.60;91.40;;;;;;6125209;23;19916;-77
2022/03/31 05:12:48;;;;;;;;;;;8.50;91.50;;;;;;6125129;23;19917;-78
2022/03/31 05:15:15;;;;;;;;;;;8.50;91.50;;;;;;6125276;23;19928;-78
2022/03/31 05:17:41;;;;;;;;;;;8.50;91.70;;;;;;6124293;23;19921;-78
2022/03/31 05:20:09;;;;;;;;;;;8.50;92.00;;;;;;6126158;23;19921;-79
2022/03/31 05:22:38;;;;;;;;;;;8.40;91.90;;;;;;6128104;23;19916;-79
2022/03/31 05:25:07;;;;;;;;;;;8.40;91.80;;;;;;6125763;23;20514;-77
2022/03/31 05:27:34;;;;;;;;;;;8.40;91.50;;;;;;6130952;23;20282;-79
2022/03/31 05:30:01;;;;;;;;;;;8.40;92.10;;;;;;6125218;23;19962;-78
2022/03/31 05:32:28;;;;;;;;;;;8.40;91.90;;;;;;6124488;23;19916;-79
2022/03/31 05:34:56;;;;;;;;;;;8.40;91.70;;;;;;6125697;23;19992;-80
2022/03/31 05:37:24;;;;;;;;;;;8.50;91.80;;;;;;6128047;23;19916;-77
2022/03/31 05:39:50;;;;;;;;;;;8.50;91.90;;;;;;6125739;23;19917;-78
2022/03/31 05:42:17;;;;;;;;;;;8.50;91.90;;;;;;6138575;23;19917;-79
2022/03/31 05:44:44;;;;;;;;;;;8.50;91.90;;;;;;6140024;23;19920;-79
2022/03/31 05:47:11;;;;;;;;;;;8.50;91.80;;;;;;6135528;23;20009;-79
2022/03/31 05:49:38;;;;;;;;;;;8.50;91.90;;;;;;6124601;23;19917;-78
2022/03/31 05:52:04;;;;;;;;;;;8.50;92.20;;;;;;6123349;23;19920;-79
2022/03/31 05:54:31;;;;;;;;;;;8.50;92.10;;;;;;6123986;23;19921;-78
2022/03/31 05:56:58;;;;;;;;;;;8.50;92.30;;;;;;6123429;23;19948;-79
2022/03/31 05:59:25;;;;;;;;;;;8.50;92.50;;;;;;6122790;23;20350;-79
2022/03/31 06:01:51;;;;;;;;;;;8.50;92.50;;;;;;6123380;23;19967;-79
2022/03/31 06:04:21;;;;;;;;;;;8.50;92.30;;;;;;6131650;23;19916;-79
2022/03/31 06:06:48;;;;;;;;;;;8.60;92.50;;;;;;6127077;23;20294;-79
2022/03/31 06:09:15;;;;;;;;;;;8.60;92.20;;;;;;6124171;23;20334;-79
2022/03/31 06:11:42;;;;;;;;;;;8.60;92.30;;;;;;6125158;23;19917;-78
2022/03/31 06:14:09;;;;;;;;;;;8.60;92.20;;;;;;6124683;23;19987;-78
2022/03/31 06:16:36;;;;;;;;;;;8.60;92.30;;;;;;6123857;23;19917;-78
2022/03/31 06:19:04;;;;;;;;;;;8.60;92.20;;;;;;6124277;23;20338;-79
2022/03/31 06:21:31;;;;;;;;;;;8.60;92.20;;;;;;6126594;23;19917;-79
2022/03/31 06:23:58;;;;;;;;;;;8.60;92.30;;;;;;6123784;23;20326;-78
2022/03/31 06:26:25;;;;;;;;;;;8.60;92.30;;;;;;6124023;23;19917;-78
2022/03/31 06:28:51;;;;;;;;;;;8.60;92.40;;;;;;6122241;23;19916;-78
2022/03/31 06:31:21;;;;;;;;;;;8.50;92.60;;;;;;6131322;23;19948;-78
2022/03/31 06:33:48;;;;;;;;;;;8.50;92.80;;;;;;6123149;23;19948;-78
2022/03/31 06:36:15;;;;;;;;;;;8.50;92.80;;;;;;6130607;23;19953;-80
2022/03/31 06:38:42;;;;;;;;;;;8.40;92.80;;;;;;6128637;23;19916;-79
2022/03/31 06:41:14;;;;;;;;;;;8.40;93.30;;;;;;6130031;23;19921;-78
2022/03/31 06:43:45;;;;;;;;;;;8.40;93.30;;;;;;6128048;23;20290;-79
2022/03/31 06:46:12;;;;;;;;;;;8.40;93.20;;;;;;6121335;23;20422;-79
2022/03/31 06:48:41;;;;;;;;;;;8.50;93.30;;;;;;6126113;23;19927;-79
2022/03/31 06:51:09;;;;;;;;;;;8.50;93.20;;;;;;6130378;23;19924;-79
2022/03/31 06:53:39;;;;;;;;;;;8.60;93.20;;;;;;6126650;23;20747;-78
2022/03/31 06:56:07;;;;;;;;;;;8.60;93.20;;;;;;6129548;23;19917;-78
2022/03/31 06:58:34;;;;;;;;;;;8.60;93.30;;;;;;6129405;23;19968;-78
2022/03/31 07:01:01;;;;;;;;;;;8.70;93.20;;;;;;6126631;23;19917;-77
2022/03/31 07:03:28;;;;;;;;;;;8.80;93.20;;;;;;6127916;23;19924;-78
2022/03/31 07:05:55;;;;;;;;;;;8.90;93.10;;;;;;6121467;23;19992;-78
2022/03/31 07:08:22;;;;;;;;;;;8.90;92.90;;;;;;6123146;23;19917;-79
2022/03/31 07:10:49;;;;;;;;;;;9.00;92.70;;;;;;6127150;23;19985;-80
2022/03/31 07:13:16;;;;;;;;;;;9.10;92.60;;;;;;6126018;23;19968;-79
2022/03/31 07:15:43;;;;;;;;;;;9.20;92.50;;;;;;6125782;23;19921;-77
2022/03/31 07:18:10;;;;;;;;;;;9.20;92.50;;;;;;6127828;23;20010;-78
2022/03/31 07:20:37;;;;;;;;;;;9.30;92.40;;;;;;6122969;23;19967;-78
2022/03/31 07:23:03;;;;;;;;;;;9.30;92.20;;;;;;6129226;23;19913;-80
2022/03/31 07:25:30;;;;;;;;;;;9.40;92.60;;;;;;6133451;23;19901;-79
2022/03/31 07:27:57;;;;;;;;;;;9.50;92.60;;;;;;6144254;23;19901;-79
2022/03/31 07:30:24;;;;;;;;;;;9.60;92.60;;;;;;6146403;23;19916;-80
2022/03/31 07:32:52;;;;;;;;;;;9.80;92.90;;;;;;6122059;23;19972;-77
2022/03/31 07:35:21;;;;;;;;;;;9.90;92.50;;;;;;6125217;23;19929;-79
2022/03/31 07:37:49;;;;;;;;;;;10.00;92.50;;;;;;6143856;23;19917;-79
2022/03/31 07:40:16;;;;;;;;;;;10.10;92.00;;;;;;6124732;23;19980;-79
2022/03/31 07:42:42;;;;;;;;;;;10.30;92.40;;;;;;6134329;23;19940;-80
2022/03/31 07:45:11;;;;;;;;;;;10.40;91.20;;;;;;6129859;23;20355;-78
2022/03/31 07:47:39;;;;;;;;;;;10.50;90.50;;;;;;6128438;23;20294;-80
2022/03/31 07:50:07;;;;;;;;;;;10.50;90.00;;;;;;6128021;23;19968;-78
2022/03/31 07:52:34;;;;;;;;;;;10.60;90.30;;;;;;6139018;23;19909;-80
2022/03/31 07:55:04;;;;;;;;;;;10.70;89.00;;;;;;6126035;23;19901;-80
2022/03/31 07:57:31;;;;;;;;;;;10.80;88.60;;;;;;6134177;23;19917;-80
2022/03/31 07:59:58;;;;;;;;;;;10.80;87.60;;;;;;6131063;23;19940;-79
2022/03/31 08:02:25;;;;;;;;;;;10.80;86.40;;;;;;6125763;23;20397;-78
2022/03/31 08:04:52;;;;;;;;;;;10.90;86.30;;;;;;6127013;23;19917;-78
2022/03/31 08:07:19;;;;;;;;;;;11.00;85.70;;;;;;6123348;23;19992;-78
2022/03/31 08:09:46;;;;;;;;;;;11.00;84.30;;;;;;6128165;23;19917;-80
2022/03/31 08:12:13;;;;;;;;;;;11.20;84.00;;;;;;6134062;23;19925;-80
2022/03/31 08:14:40;;;;;;;;;;;11.30;82.70;;;;;;6126176;23;19921;-79
2022/03/31 08:17:06;;;;;;;;;;;11.40;81.80;;;;;;6127524;23;19917;-77
2022/03/31 08:19:34;;;;;;;;;;;11.50;82.20;;;;;;6129513;23;19920;-77
2022/03/31 08:22:01;;;;;;;;;;;11.40;80.60;;;;;;6132217;23;19920;-80
2022/03/31 08:24:31;;;;;;;;;;;11.40;81.50;;;;;;6139483;23;19948;-80
2022/03/31 08:27:01;;;;;;;;;;;11.40;81.70;;;;;;6129261;23;19968;-80
2022/03/31 08:29:27;;;;;;;;;;;11.60;81.50;;;;;;6125965;23;20361;-80
2022/03/31 08:31:55;;;;;;;;;;;11.70;80.40;;;;;;6127460;23;20017;-77
2022/03/31 08:34:22;;;;;;;;;;;11.80;81.00;;;;;;6124684;23;19916;-80
2022/03/31 08:36:49;;;;;;;;;;;11.60;80.30;;;;;;6128605;23;19945;-78
2022/03/31 08:39:16;;;;;;;;;;;11.80;81.90;;;;;;6123705;23;20392;-78
2022/03/31 08:41:44;;;;;;;;;;;12.10;81.90;;;;;;6129169;23;19917;-80
2022/03/31 08:44:13;;;;;;;;;;;12.20;79.00;;;;;;6125788;23;19921;-77
2022/03/31 08:46:39;;;;;;;;;;;12.40;77.10;;;;;;6130269;23;19972;-79
2022/03/31 08:49:10;;;;;;;;;;;12.40;74.60;;;;;;6126141;23;19956;-80
2022/03/31 08:51:38;;;;;;;;;;;12.40;74.80;;;;;;6124674;23;20273;-78
2022/03/31 08:54:05;;;;;;;;;;;12.60;74.10;;;;;;6134631;23;19920;-80
2022/03/31 08:56:32;;;;;;;;;;;12.60;69.80;;;;;;6126931;23;19916;-80
2022/03/31 08:59:19;;;;;;;;;;;12.60;70.20;;;;;;6124105;23;19940;-77
2022/03/31 09:01:46;;;;;;;;;;;12.90;74.00;;;;;;6124543;23;19968;-80
2022/03/31 09:04:22;;;;;;;;;;;13.20;71.50;;;;;;6127371;23;19917;-80
2022/03/31 09:07:01;;;;;;;;;;;13.30;72.40;;;;;;6126381;23;20413;-79
2022/03/31 09:09:28;;;;;;;;;;;13.60;70.00;;;;;;6124118;23;19916;-80
2022/03/31 09:11:55;;;;;;;;;;;13.70;69.20;;;;;;6128914;23;19947;-79
2022/03/31 09:14:43;;;;;;;;;;;13.70;69.10;;;;;;6123646;23;19917;-79
2022/03/31 09:17:11;;;;;;;;;;;13.80;69.10;;;;;;6126645;23;20393;-80
2022/03/31 09:19:38;;;;;;;;;;;14.00;70.40;;;;;;6123237;23;19980;-78
2022/03/31 09:22:05;;;;;;;;;;;14.20;68.80;;;;;;6130216;23;19929;-78
2022/03/31 09:24:32;;;;;;;;;;;14.50;69.20;;;;;;6129342;23;19968;-80
2022/03/31 09:27:00;;;;;;;;;;;14.80;67.20;;;;;;6128407;23;19916;-80
2022/03/31 09:29:28;;;;;;;;;;;14.70;65.50;;;;;;6129053;23;19921;-79
2022/03/31 09:32:11;;;;;;;;;;;14.60;67.10;;;;;;6127241;23;19925;-77
2022/03/31 09:34:41;;;;;;;;;;;14.50;64.80;;;;;;6125923;23;19917;-77
2022/03/31 09:37:09;;;;;;;;;;;14.20;67.20;;;;;;6124610;23;19917;-80
2022/03/31 09:39:37;;;;;;;;;;;14.50;69.00;;;;;;6131453;23;19944;-78
2022/03/31 09:42:11;;;;;;;;;;;14.90;67.70;;;;;;6128194;23;19917;-79
2022/03/31 09:44:38;;;;;;;;;;;15.00;65.20;;;;;;6123742;23;20290;-77
2022/03/31 09:47:05;;;;;;;;;;;14.80;66.00;;;;;;6126064;23;19925;-79
2022/03/31 09:49:32;;;;;;;;;;;14.80;63.90;;;;;;6128479;23;19996;-80
2022/03/31 09:52:07;;;;;;;;;;;14.80;65.80;;;;;;6125687;23;20361;-80
2022/03/31 09:54:35;;;;;;;;;;;14.40;67.00;;;;;;6125738;23;19924;-77
2022/03/31 09:57:03;;;;;;;;;;;14.50;65.00;;;;;;6124167;23;19968;-80
2022/03/31 09:59:31;;;;;;;;;;;14.30;66.60;;;;;;6126196;23;19924;-80
2022/03/31 10:01:59;;;;;;;;;;;14.00;65.70;;;;;;6128317;23;19972;-79
2022/03/31 10:04:26;;;;;;;;;;;14.00;67.70;;;;;;6128289;23;19920;-79
2022/03/31 10:06:54;;;;;;;;;;;14.00;68.20;;;;;;6128460;23;19917;-79
2022/03/31 10:09:22;;;;;;;;;;;13.90;66.90;;;;;;6130047;23;19924;-78
2022/03/31 10:12:03;;;;;;;;;;;14.10;68.20;;;;;;6129868;23;19924;-79
2022/03/31 10:14:30;;;;;;;;;;;14.30;67.60;;;;;;6130506;23;19921;-77
2022/03/31 10:17:05;;;;;;;;;;;14.50;67.30;;;;;;6127589;23;19916;-80
2022/03/31 10:19:49;;;;;;;;;;;14.40;66.70;;;;;;6127340;23;19917;-79
2022/03/31 10:25:05;;;;;;;;;;;14.80;67.90;;;;;;6127842;23;19917;-78
2022/03/31 10:27:33;;;;;;;;;;;15.00;63.90;;;;;;6125273;23;20330;-78
2022/03/31 10:30:20;;;;;;;;;;;14.70;64.20;;;;;;6127290;23;20013;-80
2022/03/31 10:32:51;;;;;;;;;;;14.40;65.60;;;;;;6130751;23;19972;-77
2022/03/31 10:35:22;;;;;;;;;;;14.00;66.30;;;;;;6128814;23;19968;-80
2022/03/31 10:37:49;;;;;;;;;;;14.30;68.20;;;;;;6127149;23;19917;-80
2022/03/31 10:40:27;;;;;;;;;;;14.80;66.50;;;;;;6126485;23;19920;-80
2022/03/31 10:42:53;;;;;;;;;;;15.20;65.40;;;;;;6125451;23;19917;-77
2022/03/31 10:45:20;;;;;;;24.43;18.23;;;15.30;63.90;;;;;;6140666;23;19927;-79
2022/03/31 10:47:50;;;;;;;20.65;16.92;;;15.30;62.40;;;;;;6123570;23;20022;-80
2022/03/31 10:50:25;;;;;;;22.00;17.55;;;15.30;64.80;;;;;;6130206;23;20462;-78
2022/03/31 10:53:00;;;;;;;23.00;16.17;;;15.20;63.10;;;;;;6121602;23;20029;-77
2022/03/31 10:55:48;;;;;;;20.02;15.48;;;15.10;62.80;;;;;;6127079;23;20030;-79
2022/03/31 10:58:28;;;;;;;22.20;15.80;;;15.00;63.00;;;;;;6124339;23;20037;-77
2022/03/31 11:01:06;;;;;;;22.65;16.77;;;14.80;63.90;;;;;;6125560;23;20030;-78
2022/03/31 11:03:33;;;;;;;;;;;14.60;64.10;;;;;;6131569;23;20053;-77
2022/03/31 11:06:03;;;;;;;;;;;14.60;65.00;;;;;;6122593;23;19927;-79
2022/03/31 11:08:39;;;;;;;;;;;14.80;64.00;;;;;;6131850;23;19925;-80
2022/03/31 11:11:06;;;;;;;;;;;14.60;62.70;;;;;;6126523;23;19921;-79
2022/03/31 11:13:35;;;;;;;;;;;14.80;65.10;;;;;;6126268;23;19980;-77
2022/03/31 11:16:01;;;;;;;;;;;15.10;63.60;;;;;;6125820;23;20384;-78
2022/03/31 11:18:28;;;;;;;;;;;15.20;61.60;;;;;;6122101;23;19987;-77
2022/03/31 11:20:56;;;;;;;;;;;15.40;63.10;;;;;;6131941;23;19925;-80
2022/03/31 11:23:24;;;;;;;;;;;15.40;61.90;;;;;;6124728;23;20302;-80
2022/03/31 11:25:51;;;;;;;;;;;15.40;60.80;;;;;;6126704;23;20241;-80
2022/03/31 11:28:18;;;;;;;;;;;15.20;59.00;;;;;;6125198;23;20029;-79
2022/03/31 11:30:46;;;;;;;;;;;15.00;61.30;;;;;;6126465;23;19952;-78
2022/03/31 11:33:14;;;;;;;;;;;15.10;62.30;;;;;;6125578;23;20234;-79
2022/03/31 11:35:42;;;;;;;;;;;15.20;59.20;;;;;;6122712;23;19927;-80
2022/03/31 11:38:14;;;;;;;;;;;15.00;59.40;;;;;;6126978;23;19940;-79
2022/03/31 11:40:44;;;;;;;;;;;15.10;59.90;;;;;;6125783;23;19944;-80
2022/03/31 11:43:11;;;;;;;;;;;15.10;60.60;;;;;;6127264;23;19917;-80
2022/03/31 11:45:44;;;;;;;;;;;15.10;60.00;;;;;;6134518;23;19908;-80
2022/03/31 11:48:12;;;;;;;;;;;15.20;60.50;;;;;;6121810;23;19988;-79
2022/03/31 11:50:47;;;;;;;;;;;14.90;58.00;;;;;;6126471;23;19941;-80
2022/03/31 11:53:32;;;;;;;;;;;15.10;60.30;;;;;;6123415;23;20582;-80
2022/03/31 11:56:04;;;;;;;;;;;15.10;58.20;;;;;;6130814;23;19901;-79
2022/03/31 11:58:47;;;;;;;;;;;14.90;58.60;;;;;;6126132;23;19924;-79
2022/03/31 12:01:20;;;;;;;;;;;14.80;59.20;;;;;;6121554;23;19920;-78
2022/03/31 12:03:47;;;;;;;;;;;14.80;59.40;;;;;;6133456;23;20298;-79
2022/03/31 12:06:15;;;;;;;;;;;14.90;59.40;;;;;;6132249;23;19908;-80
2022/03/31 12:08:43;;;;;;;;;;;15.10;59.90;;;;;;6128548;23;19923;-79
2022/03/31 12:11:13;;;;;;;;;;;15.30;58.30;;;;;;6121399;23;19921;-78
2022/03/31 12:13:47;;;;;;;;;;;15.30;58.90;;;;;;6125086;23;19925;-80
2022/03/31 12:16:14;;;;;;;;;;;15.30;57.70;;;;;;6132052;23;19983;-78
2022/03/31 12:18:41;;;;;;;;;;;15.30;57.40;;;;;;6137537;23;19921;-77
2022/03/31 12:21:08;;;;;;;;;;;15.40;58.30;;;;;;6127576;23;19917;-79
2022/03/31 12:23:42;;;;;;;;;;;15.40;57.60;;;;;;6122694;23;19925;-80
2022/03/31 12:26:28;;;;;;;;;;;15.30;57.70;;;;;;6125418;23;19948;-79
2022/03/31 12:28:58;;;;;;;;;;;15.10;58.50;;;;;;6127725;23;19917;-80
2022/03/31 12:31:34;;;;;;;;;;;15.10;57.80;;;;;;6126012;23;19924;-79
2022/03/31 12:34:03;;;;;;;;;;;15.30;59.10;;;;;;6146460;23;19948;-80
2022/03/31 12:36:32;;;;;;;;;;;15.40;58.00;;;;;;6126507;23;19925;-79
2022/03/31 12:38:59;;;;;;;;;;;15.40;56.90;;;;;;6135666;23;19917;-80
2022/03/31 12:41:33;;;;;;;;;;;15.40;56.60;;;;;;6127196;23;20302;-79
2022/03/31 12:44:04;;;;;;;;;;;15.20;57.80;;;;;;6122086;23;19920;-77
2022/03/31 12:46:33;;;;;;;;;;;15.40;56.50;;;;;;6118559;23;19920;-80
2022/03/31 12:49:02;;;;;;;;;;;15.50;57.20;;;;;;6122442;23;19920;-80
2022/03/31 12:51:40;;;;;;;;;;;15.80;57.00;;;;;;6126071;23;19968;-77
2022/03/31 12:54:38;;;;;;;22.88;14.65;;;15.60;57.20;;;;;;6126646;23;19921;-76
2022/03/31 12:57:12;;;;;;;38.50;27.53;;;15.70;57.70;;;;;;6130431;23;20371;-77
2022/03/31 12:59:40;;;;;;;26.83;20.98;;;15.90;56.80;;;;;;6125571;23;20388;-79
2022/03/31 13:02:09;;;;;;;16.67;14.70;;;16.00;56.60;;;;;;6137646;23;20717;-77
2022/03/31 13:04:45;;;;;;;19.00;14.40;;;15.90;55.50;;;;;;6128247;23;20434;-77
2022/03/31 13:07:27;;;;;;;24.20;21.45;;;15.80;55.30;;;;;;6132545;23;20826;-77
2022/03/31 13:09:56;;;;;;;16.50;14.30;;;15.50;55.80;;;;;;6134135;23;20454;-77
2022/03/31 13:12:24;;;;;;;17.77;14.95;;;15.50;56.00;;;;;;6123093;23;20383;-79
2022/03/31 13:14:52;;;;;;;16.80;13.85;;;15.50;57.30;;;;;;6121959;23;20430;-80
2022/03/31 13:17:19;;;;;;;17.60;14.88;;;15.70;56.50;;;;;;6126549;23;20395;-79
2022/03/31 13:19:48;;;;;;;18.83;14.52;;;15.60;55.80;;;;;;6126222;23;20376;-80
2022/03/31 13:22:24;;;;;;;17.90;14.53;;;15.60;56.20;;;;;;6157575;23;20441;-78
2022/03/31 13:24:52;;;;;;;18.23;13.85;;;15.80;56.20;;;;;;6126567;23;20435;-77
2022/03/31 13:27:21;;;;;;;15.75;13.27;;;15.80;55.60;;;;;;6127927;23;20426;-80
2022/03/31 13:29:52;;;;;;;16.67;13.80;;;16.10;55.20;;;;;;6123091;23;20906;-78
2022/03/31 13:32:20;;;;;;;15.48;13.27;;;16.40;55.00;;;;;;6121566;23;20380;-79
2022/03/31 13:34:47;;;;;;;15.00;13.35;;;16.80;54.80;;;;;;6123427;23;20860;-80
2022/03/31 13:37:18;;;;;;;17.90;13.15;;;17.00;54.40;;;;;;6126525;23;20384;-79
2022/03/31 13:39:45;;;;;;;17.98;14.35;;;17.30;53.10;;;;;;6121735;23;20383;-79
2022/03/31 13:42:13;;;;;;;17.38;13.18;;;17.60;52.00;;;;;;6122316;23;20387;-78
2022/03/31 13:44:41;;;;;;;16.13;13.20;;;17.90;51.40;;;;;;6123249;23;20384;-79
2022/03/31 13:47:10;;;;;;;15.85;12.90;;;18.20;51.70;;;;;;6130725;23;20923;-79
2022/03/31 13:49:38;;;;;;;16.15;13.43;;;18.30;52.10;;;;;;6123900;23;20451;-77
2022/03/31 13:52:06;;;;;;;15.52;12.98;;;18.10;51.20;;;;;;6126298;23;20483;-78
2022/03/31 13:54:34;;;;;;;15.18;12.90;;;17.90;51.40;;;;;;6133496;23;20387;-79
2022/03/31 13:57:02;;;;;;;15.83;12.97;;;17.60;51.10;;;;;;6121019;23;20391;-78
2022/03/31 14:02:16;;;;;;;15.82;12.70;;;17.50;52.10;;;;;;6134277;23;20371;-79
2022/03/31 14:04:44;;;;;;;18.23;13.15;;;17.40;52.80;;;;;;6128856;23;20379;-79
2022/03/31 14:07:11;;;;;;;16.57;13.47;;;17.50;52.60;;;;;;6126483;23;20379;-79
2022/03/31 14:09:38;;;;;;;15.55;12.57;;;17.50;51.60;;;;;;6127723;23;20383;-79
2022/03/31 14:12:06;;;;;;;14.88;13.25;;;17.50;52.30;;;;;;6119678;23;20447;-79
2022/03/31 14:14:40;;;;;;;22.13;17.00;;;17.50;52.70;;;;;;6126075;23;20404;-80
2022/03/31 14:17:08;;;;;;;19.58;15.88;;;17.70;52.50;;;;;;6151206;23;20933;-79
2022/03/31 14:19:35;;;;;;;18.13;15.57;;;17.60;52.20;;;;;;6149574;23;20424;-80
2022/03/31 14:22:05;;;;;;;18.63;15.25;;;17.50;52.50;;;;;;6106436;23;20380;-79
2022/03/31 14:24:33;;;;;;;17.27;14.90;;;17.50;52.60;;;;;;6132128;23;20377;-78